createdAt,value
2023-03-24T00:01:03.197Z,16.00
2023-03-24T00:03:30.973Z,18.75
2023-03-24T00:05:59.959Z,18.00
2023-03-24T00:08:26.924Z,19.00
2023-03-24T00:10:53.869Z,15.75
2023-03-24T00:13:20.844Z,14.50
2023-03-24T00:15:47.789Z,17.00
2023-03-24T00:18:14.797Z,16.00
2023-03-24T00:20:41.996Z,14.00
2023-03-24T00:23:09.048Z,16.25
2023-03-24T00:25:35.927Z,17.00
2023-03-24T00:28:03.739Z,16.00
2023-03-24T00:30:30.743Z,15.00
2023-03-24T00:32:57.826Z,15.00
2023-03-24T00:35:25.360Z,13.00
2023-03-24T00:37:52.399Z,13.00
2023-03-24T00:40:21.420Z,13.00
2023-03-24T00:42:50.367Z,18.50
2023-03-24T00:45:20.534Z,15.00
2023-03-24T00:47:49.194Z,15.25
2023-03-24T00:50:18.780Z,16.00
2023-03-24T00:52:46.917Z,17.75
2023-03-24T00:55:14.578Z,16.00
2023-03-24T00:57:43.692Z,15.00
2023-03-24T01:00:11.354Z,18.00
2023-03-24T01:02:38.578Z,20.50
2023-03-24T01:05:06.006Z,15.50
2023-03-24T01:07:33.330Z,15.00
2023-03-24T01:10:00.534Z,17.25
2023-03-24T01:12:32.980Z,15.00
2023-03-24T01:15:01.488Z,16.75
2023-03-24T01:17:29.054Z,19.00
2023-03-24T01:19:56.972Z,16.25
2023-03-24T01:22:30.449Z,15.00
2023-03-24T01:24:57.677Z,15.00
2023-03-24T01:27:24.628Z,14.00
2023-03-24T01:29:51.645Z,13.00
2023-03-24T01:32:18.623Z,13.00
2023-03-24T01:34:45.560Z,14.75
2023-03-24T01:37:12.449Z,15.00
2023-03-24T01:39:39.454Z,15.00
2023-03-24T01:42:06.448Z,15.00
2023-03-24T01:44:38.986Z,15.25
2023-03-24T01:47:08.171Z,13.00
2023-03-24T01:49:41.105Z,16.75
2023-03-24T01:52:15.908Z,17.00
2023-03-24T01:54:53.502Z,13.00
2023-03-24T01:57:37.158Z,12.00
2023-03-24T02:00:10.693Z,14.50
2023-03-24T02:03:10.140Z,15.00
2023-03-24T02:05:48.103Z,13.00
2023-03-24T02:08:23.682Z,13.00
2023-03-24T02:10:53.396Z,18.00
2023-03-24T02:13:20.511Z,19.00
2023-03-24T02:16:38.936Z,15.00
2023-03-24T02:19:22.985Z,13.00
2023-03-24T02:22:19.236Z,18.00
2023-03-24T02:25:16.668Z,18.00
2023-03-24T02:28:02.428Z,12.50
2023-03-24T02:31:06.938Z,17.25
2023-03-24T02:33:59.691Z,17.00
2023-03-24T02:36:51.509Z,13.25
2023-03-24T02:39:37.613Z,12.00
2023-03-24T02:42:11.334Z,16.25
2023-03-24T02:45:03.329Z,15.00
2023-03-24T02:48:02.845Z,15.00
2023-03-24T02:50:45.727Z,18.00
2023-03-24T02:53:32.307Z,16.00
2023-03-24T02:56:25.258Z,15.00
2023-03-24T02:59:07.623Z,13.00
2023-03-24T03:02:01.423Z,12.00
2023-03-24T03:05:11.447Z,12.00
2023-03-24T03:07:42.489Z,10.00
2023-03-24T03:10:32.441Z,15.50
2023-03-24T03:13:04.875Z,15.00
2023-03-24T03:15:43.067Z,16.00
2023-03-24T03:18:17.829Z,18.00
2023-03-24T03:20:52.521Z,15.00
2023-03-24T03:23:29.058Z,17.00
2023-03-24T03:26:01.641Z,19.00
2023-03-24T03:28:32.417Z,19.00
2023-03-24T03:31:06.855Z,17.00
2023-03-24T03:33:40.600Z,19.00
2023-03-24T03:36:29.041Z,18.00
2023-03-24T03:39:16.172Z,15.00
2023-03-24T03:41:45.007Z,16.00
2023-03-24T03:44:14.380Z,13.50
2023-03-24T03:46:42.855Z,17.00
2023-03-24T03:49:14.663Z,15.00
2023-03-24T03:51:41.788Z,15.00
2023-03-24T03:54:13.084Z,15.25
2023-03-24T03:56:42.015Z,17.75
2023-03-24T03:59:31.400Z,17.00
2023-03-24T04:02:23.314Z,15.00
2023-03-24T04:05:06.304Z,14.00
2023-03-24T04:08:14.103Z,15.25
2023-03-24T04:11:25.144Z,17.00
2023-03-24T04:14:33.371Z,15.00
2023-03-24T04:17:47.375Z,13.00
2023-03-24T04:20:28.995Z,12.25
2023-03-24T04:23:09.170Z,13.00
2023-03-24T04:25:54.240Z,12.50
2023-03-24T04:28:43.131Z,15.50
2023-03-24T04:31:12.931Z,14.25
2023-03-24T04:33:54.811Z,15.50
2023-03-24T04:36:36.648Z,19.00
2023-03-24T04:39:33.782Z,15.50
2023-03-24T04:42:13.588Z,15.00
2023-03-24T04:44:43.975Z,18.50
2023-03-24T04:47:34.287Z,16.25
2023-03-24T04:50:13.677Z,15.00
2023-03-24T04:52:43.044Z,15.50
2023-03-24T04:55:50.065Z,15.00
2023-03-24T04:58:28.430Z,15.50
2023-03-24T05:00:55.928Z,19.75
2023-03-24T05:03:23.227Z,16.50
2023-03-24T05:05:51.673Z,14.00
2023-03-24T05:08:20.894Z,15.25
2023-03-24T05:10:49.712Z,15.00
2023-03-24T05:13:17.272Z,18.50
2023-03-24T05:15:54.446Z,14.25
2023-03-24T05:18:53.703Z,14.75
2023-03-24T05:21:20.805Z,15.50
2023-03-24T05:23:47.871Z,15.00
2023-03-24T05:26:17.352Z,14.00
2023-03-24T05:29:00.863Z,13.00
2023-03-24T05:31:28.583Z,15.00
2023-03-24T05:34:02.390Z,14.50
2023-03-24T05:36:31.923Z,16.25
2023-03-24T05:39:00.115Z,14.50
2023-03-24T05:41:37.787Z,17.50
2023-03-24T05:44:04.867Z,16.25
2023-03-24T05:46:32.103Z,17.00
2023-03-24T05:49:01.075Z,18.00
2023-03-24T05:51:34.122Z,15.00
2023-03-24T05:54:04.329Z,17.00
2023-03-24T05:56:35.661Z,19.00
2023-03-24T05:59:23.017Z,19.00
2023-03-24T06:01:52.538Z,19.00
2023-03-24T06:04:26.634Z,20.00
2023-03-24T06:06:58.400Z,15.25
2023-03-24T06:09:31.100Z,17.00
2023-03-24T06:12:00.104Z,15.00
2023-03-24T06:14:27.540Z,13.00
2023-03-24T06:17:05.233Z,13.00
2023-03-24T06:19:32.574Z,13.00
2023-03-24T06:22:25.319Z,15.75
2023-03-24T06:24:52.321Z,19.00
2023-03-24T06:27:19.532Z,14.75
2023-03-24T06:29:54.317Z,13.00
2023-03-24T06:32:21.610Z,16.25
2023-03-24T06:34:48.623Z,15.00
2023-03-24T06:37:30.478Z,15.00
2023-03-24T06:39:59.129Z,14.00
2023-03-24T06:42:29.928Z,15.00
2023-03-24T06:44:57.321Z,15.00
2023-03-24T06:47:24.448Z,18.50
2023-03-24T06:49:51.624Z,19.00
2023-03-24T06:52:18.522Z,18.00
2023-03-24T06:54:45.429Z,15.50
2023-03-24T06:57:12.439Z,17.25
2023-03-24T06:59:57.570Z,18.00
2023-03-24T07:02:29.391Z,16.00
2023-03-24T07:04:56.516Z,15.00
2023-03-24T07:08:08.306Z,16.00
2023-03-24T07:10:50.712Z,19.00
2023-03-24T07:13:17.593Z,19.50
2023-03-24T07:15:44.560Z,19.25
2023-03-24T07:18:12.359Z,17.25
2023-03-24T07:20:44.663Z,16.00
2023-03-24T07:23:14.783Z,16.50
2023-03-24T07:26:05.001Z,15.25
2023-03-24T07:28:47.477Z,15.00
2023-03-24T07:31:38.291Z,16.00
2023-03-24T07:34:09.187Z,15.00
2023-03-24T07:36:38.455Z,16.00
2023-03-24T07:39:08.751Z,18.25
2023-03-24T07:41:37.538Z,18.00
2023-03-24T07:44:12.125Z,15.50
2023-03-24T07:46:49.297Z,18.00
2023-03-24T07:49:19.310Z,19.00
2023-03-24T07:52:07.952Z,16.00
2023-03-24T07:54:55.800Z,19.00
2023-03-24T07:57:50.808Z,19.00
2023-03-24T08:00:19.238Z,18.00
2023-03-24T08:02:58.150Z,16.00
2023-03-24T08:05:45.427Z,18.00
2023-03-24T08:08:32.657Z,21.25
2023-03-24T08:10:59.925Z,18.00
2023-03-24T08:13:27.036Z,19.50
2023-03-24T08:15:54.184Z,19.00
2023-03-24T08:18:23.160Z,19.00
2023-03-24T08:20:54.590Z,19.50
2023-03-24T08:23:21.444Z,21.00
2023-03-24T08:25:50.078Z,23.00
2023-03-24T08:28:17.345Z,19.00
2023-03-24T08:30:44.735Z,20.25
2023-03-24T08:33:13.865Z,21.75
2023-03-24T08:35:41.346Z,23.00
2023-03-24T08:38:10.038Z,22.00
2023-03-24T08:40:38.947Z,22.00
2023-03-24T08:43:08.310Z,19.75
2023-03-24T08:45:36.196Z,19.00
2023-03-24T08:48:05.797Z,19.00
2023-03-24T08:50:35.266Z,23.75
2023-03-24T08:53:03.376Z,20.00
2023-03-24T08:55:30.537Z,19.00
2023-03-24T08:57:57.420Z,19.00
2023-03-24T09:00:24.920Z,18.00
2023-03-24T09:02:54.036Z,19.00
2023-03-24T09:05:36.716Z,21.00
2023-03-24T09:08:10.135Z,19.00
2023-03-24T09:10:37.007Z,19.25
2023-03-24T09:13:04.030Z,19.00
2023-03-24T09:15:32.130Z,18.00
2023-03-24T09:17:59.433Z,20.25
2023-03-24T09:20:26.502Z,23.00
2023-03-24T09:22:53.618Z,18.00
2023-03-24T09:25:22.324Z,18.75
2023-03-24T09:27:49.270Z,21.00
2023-03-24T09:30:18.374Z,22.50
2023-03-24T09:32:46.063Z,21.00
2023-03-24T09:35:13.017Z,18.00
2023-03-24T09:37:40.089Z,19.00
2023-03-24T09:40:07.981Z,22.75
2023-03-24T09:42:41.466Z,18.00
2023-03-24T09:45:15.681Z,17.00
2023-03-24T09:47:45.708Z,20.50
2023-03-24T09:50:25.424Z,17.75
2023-03-24T09:52:57.272Z,16.00
2023-03-24T09:55:29.133Z,19.75
2023-03-24T09:58:01.577Z,18.00
2023-03-24T10:00:32.219Z,19.00
2023-03-24T10:03:02.389Z,20.50
2023-03-24T10:05:58.516Z,17.50
2023-03-24T10:08:35.006Z,18.50
2023-03-24T10:11:05.089Z,17.25
2023-03-24T10:13:37.788Z,18.00
2023-03-24T10:16:23.221Z,22.00
2023-03-24T10:19:22.105Z,21.00
2023-03-24T10:22:25.090Z,24.00
2023-03-24T10:25:04.720Z,21.00
2023-03-24T10:27:58.926Z,19.00
2023-03-24T10:30:33.647Z,20.50
2023-03-24T10:33:00.719Z,23.00
2023-03-24T10:35:36.920Z,23.00
2023-03-24T10:38:22.202Z,20.50
2023-03-24T10:40:49.930Z,18.50
2023-03-24T10:43:18.192Z,19.00
2023-03-24T10:45:49.638Z,20.25
2023-03-24T10:48:35.067Z,23.00
2023-03-24T10:51:02.462Z,22.00
2023-03-24T10:53:29.323Z,21.50
2023-03-24T10:55:56.252Z,20.50
2023-03-24T10:58:40.055Z,22.75
2023-03-24T11:01:21.372Z,23.75
2023-03-24T11:03:49.562Z,22.75
2023-03-24T11:06:19.958Z,22.25
2023-03-24T11:08:47.368Z,22.00
2023-03-24T11:11:15.898Z,21.50
2023-03-24T11:13:54.903Z,22.00
2023-03-24T11:16:44.989Z,21.50
2023-03-24T11:19:23.853Z,22.00
2023-03-24T11:21:52.896Z,19.00
2023-03-24T11:24:20.785Z,18.00
2023-03-24T11:26:58.188Z,21.00
2023-03-24T11:29:26.506Z,21.00
2023-03-24T11:32:01.855Z,19.00
2023-03-24T11:34:34.838Z,19.00
2023-03-24T11:37:20.092Z,16.00
2023-03-24T11:40:14.739Z,19.00
2023-03-24T11:42:51.088Z,18.25
2023-03-24T11:45:40.662Z,22.00
2023-03-24T11:48:44.921Z,20.00
2023-03-24T11:51:17.809Z,20.50
2023-03-24T11:53:51.305Z,21.00
2023-03-24T11:56:30.367Z,22.00
2023-03-24T11:59:27.302Z,19.25
2023-03-24T12:02:09.185Z,18.00
2023-03-24T12:04:49.981Z,18.00
2023-03-24T12:08:01.329Z,18.00
2023-03-24T12:10:36.999Z,19.00
2023-03-24T12:13:03.906Z,19.00
2023-03-24T12:16:00.750Z,19.50
2023-03-24T12:18:27.692Z,18.00
2023-03-24T12:21:07.245Z,23.00
2023-03-24T12:23:55.282Z,22.00
2023-03-24T12:26:30.613Z,23.25
2023-03-24T12:29:19.397Z,20.00
2023-03-24T12:32:05.196Z,21.00
2023-03-24T12:35:04.615Z,20.00
2023-03-24T12:37:34.561Z,21.00
2023-03-24T12:40:16.732Z,20.50
2023-03-24T12:42:45.938Z,22.50
2023-03-24T12:45:30.777Z,20.00
2023-03-24T12:48:24.575Z,19.00
2023-03-24T12:50:54.264Z,22.50
2023-03-24T12:53:23.961Z,23.00
2023-03-24T12:56:04.262Z,20.00
2023-03-24T12:58:43.033Z,19.00
2023-03-24T13:01:35.652Z,21.00
2023-03-24T13:04:11.740Z,19.00
2023-03-24T13:06:50.717Z,19.00
2023-03-24T13:09:37.044Z,19.50
2023-03-24T13:12:18.680Z,21.75
2023-03-24T13:15:02.394Z,23.00
2023-03-24T13:17:54.912Z,21.75
2023-03-24T13:20:53.253Z,19.00
2023-03-24T13:23:38.986Z,21.00
2023-03-24T13:26:26.554Z,20.00
2023-03-24T13:29:14.956Z,19.00
2023-03-24T13:31:53.987Z,19.00
2023-03-24T13:34:23.835Z,18.00
2023-03-24T13:36:55.105Z,19.00
2023-03-24T13:39:25.562Z,21.00
2023-03-24T13:41:55.869Z,23.00
2023-03-24T13:44:34.416Z,20.00
2023-03-24T13:47:06.873Z,19.00
2023-03-24T13:49:34.835Z,18.00
2023-03-24T13:52:26.005Z,18.00
2023-03-24T13:54:58.570Z,20.00
2023-03-24T13:57:26.784Z,21.50
2023-03-24T14:00:09.064Z,17.00
2023-03-24T14:02:53.205Z,14.75
2023-03-24T14:05:22.996Z,13.00
2023-03-24T14:07:51.793Z,13.00
2023-03-24T14:10:18.687Z,15.00
2023-03-24T14:13:05.593Z,16.50
2023-03-24T14:15:39.748Z,16.00
2023-03-24T14:18:35.757Z,17.00
2023-03-24T14:21:05.435Z,16.00
2023-03-24T14:23:36.902Z,18.75
2023-03-24T14:26:15.121Z,19.50
2023-03-24T14:28:50.502Z,19.00
2023-03-24T14:31:24.428Z,18.00
2023-03-24T14:33:54.531Z,16.00
2023-03-24T14:36:34.678Z,18.75
2023-03-24T14:39:25.019Z,18.00
2023-03-24T14:41:52.080Z,16.00
2023-03-24T14:44:46.534Z,19.00
2023-03-24T14:47:31.524Z,17.50
2023-03-24T14:50:01.674Z,18.00
2023-03-24T14:52:39.004Z,20.00
2023-03-24T14:55:16.220Z,19.00
2023-03-24T14:57:45.884Z,16.00
2023-03-24T15:00:31.751Z,16.00
2023-03-24T15:03:16.297Z,16.00
2023-03-24T15:05:43.388Z,17.50
2023-03-24T15:08:23.866Z,19.00
2023-03-24T15:10:55.561Z,16.75
2023-03-24T15:13:43.053Z,18.75
2023-03-24T15:16:13.050Z,22.00
2023-03-24T15:19:00.556Z,17.50
2023-03-24T15:21:40.464Z,15.00
2023-03-24T15:24:22.455Z,15.00
2023-03-24T15:26:55.277Z,18.00
2023-03-24T15:29:22.816Z,16.00
2023-03-24T15:31:50.453Z,16.00
2023-03-24T15:34:31.088Z,16.00
2023-03-24T15:37:04.480Z,14.75
2023-03-24T15:39:37.323Z,16.00
2023-03-24T15:42:14.472Z,15.00
2023-03-24T15:44:41.881Z,16.00
2023-03-24T15:47:29.208Z,19.00
2023-03-24T15:50:01.220Z,22.00
2023-03-24T15:52:36.635Z,18.00
2023-03-24T15:55:09.049Z,16.50
2023-03-24T15:57:42.566Z,19.00
2023-03-24T16:00:18.506Z,19.00
2023-03-24T16:02:56.152Z,19.00
2023-03-24T16:05:30.776Z,17.00
2023-03-24T16:08:00.893Z,19.75
2023-03-24T16:10:32.650Z,18.00
2023-03-24T16:13:20.693Z,16.00
2023-03-24T16:16:13.855Z,18.50
2023-03-24T16:18:44.302Z,17.00
2023-03-24T16:21:18.620Z,17.00
2023-03-24T16:23:46.865Z,16.00
2023-03-24T16:26:21.539Z,16.00
2023-03-24T16:28:49.283Z,19.50
2023-03-24T16:31:25.061Z,19.00
2023-03-24T16:33:54.901Z,21.00
2023-03-24T16:36:23.645Z,21.75
2023-03-24T16:38:50.769Z,22.00
2023-03-24T16:41:17.737Z,19.50
2023-03-24T16:43:45.695Z,19.50
2023-03-24T16:46:14.150Z,21.00
2023-03-24T16:48:41.500Z,18.00
2023-03-24T16:51:14.233Z,16.00
2023-03-24T16:53:42.683Z,21.50
2023-03-24T16:56:12.787Z,22.00
2023-03-24T16:58:40.127Z,19.50
2023-03-24T17:01:34.574Z,20.50
2023-03-24T17:04:09.201Z,21.00
2023-03-24T17:06:41.788Z,20.00
2023-03-24T17:09:09.556Z,22.25
2023-03-24T17:11:39.736Z,18.25
2023-03-24T17:14:07.156Z,16.00
2023-03-24T17:16:36.218Z,26.00
2023-03-24T17:19:06.668Z,23.00
2023-03-24T17:21:37.046Z,19.00
2023-03-24T17:24:04.826Z,18.00
2023-03-24T17:26:32.098Z,18.00
2023-03-24T17:28:59.202Z,21.00
2023-03-24T17:31:26.422Z,18.25
2023-03-24T17:33:53.339Z,15.00
2023-03-24T17:36:20.397Z,18.00
2023-03-24T17:38:47.297Z,19.00
2023-03-24T17:41:14.203Z,18.00
2023-03-24T17:43:41.423Z,20.75
2023-03-24T17:46:08.649Z,19.00
2023-03-24T17:48:35.650Z,15.00
2023-03-24T17:51:02.628Z,18.75
2023-03-24T17:53:29.559Z,19.25
2023-03-24T17:55:59.747Z,18.00
2023-03-24T17:58:27.380Z,19.00
2023-03-24T18:00:54.483Z,18.00
2023-03-24T18:03:21.330Z,18.00
2023-03-24T18:05:48.488Z,16.00
2023-03-24T18:08:16.221Z,15.00
2023-03-24T18:10:43.606Z,15.00
2023-03-24T18:13:11.396Z,15.00
2023-03-24T18:15:42.238Z,15.00
2023-03-24T18:18:09.945Z,18.75
2023-03-24T18:20:37.100Z,19.75
2023-03-24T18:23:04.116Z,21.00
2023-03-24T18:25:32.155Z,20.00
2023-03-24T18:27:59.263Z,18.00
2023-03-24T18:30:26.143Z,20.00
2023-03-24T18:32:53.482Z,18.75
2023-03-24T18:35:21.001Z,18.00
2023-03-24T18:37:48.300Z,17.00
2023-03-24T18:40:15.808Z,18.50
2023-03-24T18:42:43.088Z,19.00
2023-03-24T18:45:10.573Z,17.00
2023-03-24T18:47:37.637Z,16.00
2023-03-24T18:50:05.020Z,18.00
2023-03-24T18:52:32.008Z,17.00
2023-03-24T18:54:58.904Z,17.00
2023-03-24T18:57:25.896Z,17.75
2023-03-24T18:59:52.760Z,17.50
2023-03-24T19:02:21.725Z,19.00
2023-03-24T19:04:50.404Z,21.00
2023-03-24T19:07:17.391Z,21.00
2023-03-24T19:09:44.276Z,20.75
2023-03-24T19:12:11.579Z,17.75
2023-03-24T19:14:38.486Z,15.00
2023-03-24T19:17:05.453Z,15.00
2023-03-24T19:19:32.379Z,20.25
2023-03-24T19:21:59.629Z,18.75
2023-03-24T19:24:26.925Z,19.00
2023-03-24T19:26:54.624Z,17.00
2023-03-24T19:29:21.559Z,15.00
2023-03-24T19:31:49.440Z,16.00
2023-03-24T19:34:16.760Z,19.50
2023-03-24T19:36:43.713Z,18.00
2023-03-24T19:39:11.952Z,17.00
2023-03-24T19:41:39.046Z,15.00
2023-03-24T19:44:06.476Z,18.50
2023-03-24T19:46:33.504Z,22.00
2023-03-24T19:49:00.598Z,19.00
2023-03-24T19:51:27.477Z,18.00
2023-03-24T19:53:54.439Z,18.50
2023-03-24T19:56:21.468Z,20.00
2023-03-24T19:58:48.396Z,20.00
2023-03-24T20:01:15.378Z,21.00
2023-03-24T20:03:42.450Z,18.00
2023-03-24T20:06:09.844Z,19.00
2023-03-24T20:08:39.931Z,20.25
2023-03-24T20:11:08.552Z,21.50
2023-03-24T20:13:35.419Z,19.00
2023-03-24T20:16:02.544Z,16.00
2023-03-24T20:18:29.594Z,16.00
2023-03-24T20:20:57.457Z,15.00
2023-03-24T20:23:24.451Z,15.00
2023-03-24T20:25:51.821Z,15.00
2023-03-24T20:28:18.936Z,17.50
2023-03-24T20:30:45.892Z,17.00
2023-03-24T20:33:13.579Z,16.00
2023-03-24T20:35:40.656Z,17.50
2023-03-24T20:38:07.586Z,19.00
2023-03-24T20:40:37.638Z,20.00
2023-03-24T20:43:04.788Z,16.00
2023-03-24T20:45:31.723Z,16.50
2023-03-24T20:47:58.781Z,19.00
2023-03-24T20:50:25.656Z,18.00
2023-03-24T20:52:53.807Z,16.00
2023-03-24T20:55:20.702Z,21.00
2023-03-24T20:57:47.710Z,17.50
2023-03-24T21:00:15.046Z,17.75
2023-03-24T21:02:43.403Z,18.00
2023-03-24T21:05:11.926Z,19.75
2023-03-24T21:07:38.843Z,20.75
2023-03-24T21:10:06.395Z,18.00
2023-03-24T21:12:34.253Z,19.00
2023-03-24T21:15:01.473Z,19.00
2023-03-24T21:17:28.728Z,21.00
2023-03-24T21:19:55.554Z,18.00
2023-03-24T21:22:23.576Z,16.75
2023-03-24T21:24:50.873Z,15.00
2023-03-24T21:27:17.799Z,16.00
2023-03-24T21:29:44.703Z,20.50
2023-03-24T21:32:11.568Z,22.00
2023-03-24T21:34:38.439Z,21.75
2023-03-24T21:37:06.474Z,18.50
2023-03-24T21:39:33.473Z,18.00
2023-03-24T21:42:00.372Z,18.75
2023-03-24T21:44:27.202Z,17.00
2023-03-24T21:46:54.093Z,16.00
2023-03-24T21:49:20.994Z,16.00
2023-03-24T21:51:47.906Z,16.00
2023-03-24T21:54:14.820Z,20.50
2023-03-24T21:56:41.740Z,18.00
2023-03-24T21:59:08.709Z,19.00
2023-03-24T22:01:36.256Z,18.75
2023-03-24T22:04:03.652Z,19.75
2023-03-24T22:06:30.654Z,20.00
2023-03-24T22:08:58.857Z,19.00
2023-03-24T22:11:26.194Z,17.50
2023-03-24T22:13:53.358Z,15.00
2023-03-24T22:16:20.214Z,19.75
2023-03-24T22:18:50.019Z,19.00
2023-03-24T22:21:16.907Z,16.00
2023-03-24T22:23:43.815Z,18.50
2023-03-24T22:26:13.563Z,18.00
2023-03-24T22:28:41.376Z,15.00
2023-03-24T22:31:11.072Z,15.50
2023-03-24T22:33:38.450Z,16.00
2023-03-24T22:36:06.109Z,15.00
2023-03-24T22:38:33.529Z,19.00
2023-03-24T22:41:03.384Z,20.00
2023-03-24T22:43:31.131Z,18.00
2023-03-24T22:45:58.027Z,18.00
2023-03-24T22:48:25.574Z,15.25
2023-03-24T22:50:53.629Z,17.75
2023-03-24T22:53:20.501Z,20.50
2023-03-24T22:55:47.927Z,18.00
2023-03-24T22:58:15.814Z,16.00
2023-03-24T23:00:44.465Z,15.50
2023-03-24T23:03:12.239Z,15.00
2023-03-24T23:05:41.106Z,18.25
2023-03-24T23:08:09.954Z,18.00
2023-03-24T23:10:41.607Z,18.50
2023-03-24T23:13:08.852Z,16.00
2023-03-24T23:15:35.759Z,17.50
2023-03-24T23:18:02.794Z,18.25
2023-03-24T23:20:29.835Z,16.50
2023-03-24T23:22:57.201Z,17.00
2023-03-24T23:25:24.374Z,17.00
2023-03-24T23:27:51.703Z,20.50
2023-03-24T23:30:18.579Z,19.00
2023-03-24T23:32:45.897Z,19.00
2023-03-24T23:35:13.060Z,19.50
2023-03-24T23:37:40.312Z,17.00
2023-03-24T23:40:10.994Z,15.00
2023-03-24T23:42:48.025Z,15.00
2023-03-24T23:45:18.012Z,17.00
2023-03-24T23:47:50.491Z,20.00
2023-03-24T23:50:19.237Z,20.75
2023-03-24T23:52:46.693Z,21.00
2023-03-24T23:55:15.467Z,17.00
2023-03-24T23:57:45.744Z,19.00
